sensor_id;sensor_type;location;lat;lon;timestamp;temperature;humidity
67163;DHT22;54092;53.088;8.850;2024-01-30T00:02:24;5.70;99.90
67163;DHT22;54092;53.088;8.850;2024-01-30T00:04:50;5.70;99.90
67163;DHT22;54092;53.088;8.850;2024-01-30T00:07:16;5.70;99.90
67163;DHT22;54092;53.088;8.850;2024-01-30T00:09:41;5.70;99.90
67163;DHT22;54092;53.088;8.850;2024-01-30T00:12:07;5.70;99.90
67163;DHT22;54092;53.088;8.850;2024-01-30T00:14:33;5.70;99.90
67163;DHT22;54092;53.088;8.850;2024-01-30T00:16:58;5.60;99.90
67163;DHT22;54092;53.088;8.850;2024-01-30T00:19:24;5.70;99.90
67163;DHT22;54092;53.088;8.850;2024-01-30T00:21:49;5.70;99.90
67163;DHT22;54092;53.088;8.850;2024-01-30T00:24:15;5.60;99.90
67163;DHT22;54092;53.088;8.850;2024-01-30T00:26:40;5.60;99.90
67163;DHT22;54092;53.088;8.850;2024-01-30T00:29:06;5.60;99.90
67163;DHT22;54092;53.088;8.850;2024-01-30T00:31:31;5.60;99.90
67163;DHT22;54092;53.088;8.850;2024-01-30T00:33:57;5.50;99.90
67163;DHT22;54092;53.088;8.850;2024-01-30T00:36:22;5.50;99.90
67163;DHT22;54092;53.088;8.850;2024-01-30T00:38:48;5.50;99.90
67163;DHT22;54092;53.088;8.850;2024-01-30T00:41:14;5.50;99.90
67163;DHT22;54092;53.088;8.850;2024-01-30T00:43:39;5.50;99.90
67163;DHT22;54092;53.088;8.850;2024-01-30T00:46:05;5.50;99.90
67163;DHT22;54092;53.088;8.850;2024-01-30T00:48:30;5.50;99.90
67163;DHT22;54092;53.088;8.850;2024-01-30T00:50:56;5.50;99.90
67163;DHT22;54092;53.088;8.850;2024-01-30T00:53:22;5.50;99.90
67163;DHT22;54092;53.088;8.850;2024-01-30T00:55:47;5.40;99.90
67163;DHT22;54092;53.088;8.850;2024-01-30T00:58:13;5.40;99.90
67163;DHT22;54092;53.088;8.850;2024-01-30T01:00:39;5.40;99.90
67163;DHT22;54092;53.088;8.850;2024-01-30T01:03:04;5.40;99.90
67163;DHT22;54092;53.088;8.850;2024-01-30T01:05:30;5.40;99.90
67163;DHT22;54092;53.088;8.850;2024-01-30T01:07:55;5.40;99.90
67163;DHT22;54092;53.088;8.850;2024-01-30T01:10:21;5.50;99.90
67163;DHT22;54092;53.088;8.850;2024-01-30T01:12:48;5.50;99.90
67163;DHT22;54092;53.088;8.850;2024-01-30T01:15:13;5.50;99.90
67163;DHT22;54092;53.088;8.850;2024-01-30T01:17:39;5.50;99.90
67163;DHT22;54092;53.088;8.850;2024-01-30T01:20:06;5.50;99.90
67163;DHT22;54092;53.088;8.850;2024-01-30T01:22:32;5.50;99.90
67163;DHT22;54092;53.088;8.850;2024-01-30T01:24:58;5.50;99.90
67163;DHT22;54092;53.088;8.850;2024-01-30T01:27:24;5.50;99.90
67163;DHT22;54092;53.088;8.850;2024-01-30T01:29:50;5.60;99.90
67163;DHT22;54092;53.088;8.850;2024-01-30T01:32:15;5.60;99.90
67163;DHT22;54092;53.088;8.850;2024-01-30T01:34:41;5.60;99.90
67163;DHT22;54092;53.088;8.850;2024-01-30T01:37:07;5.60;99.90
67163;DHT22;54092;53.088;8.850;2024-01-30T01:39:33;5.60;99.90
67163;DHT22;54092;53.088;8.850;2024-01-30T01:41:58;5.70;99.90
67163;DHT22;54092;53.088;8.850;2024-01-30T01:44:24;5.70;99.90
67163;DHT22;54092;53.088;8.850;2024-01-30T01:46:49;5.70;99.90
67163;DHT22;54092;53.088;8.850;2024-01-30T01:49:15;5.70;99.90
67163;DHT22;54092;53.088;8.850;2024-01-30T01:51:43;5.70;99.90
67163;DHT22;54092;53.088;8.850;2024-01-30T01:54:10;5.70;99.90
67163;DHT22;54092;53.088;8.850;2024-01-30T01:56:36;5.70;99.90
67163;DHT22;54092;53.088;8.850;2024-01-30T01:59:07;5.70;99.90
67163;DHT22;54092;53.088;8.850;2024-01-30T02:01:34;5.70;99.90
67163;DHT22;54092;53.088;8.850;2024-01-30T02:04:00;5.60;99.90
67163;DHT22;54092;53.088;8.850;2024-01-30T02:06:26;5.60;99.90
67163;DHT22;54092;53.088;8.850;2024-01-30T02:08:52;5.60;99.90
67163;DHT22;54092;53.088;8.850;2024-01-30T02:11:18;5.60;99.90
67163;DHT22;54092;53.088;8.850;2024-01-30T02:13:45;5.60;99.90
67163;DHT22;54092;53.088;8.850;2024-01-30T02:16:10;5.50;99.90
67163;DHT22;54092;53.088;8.850;2024-01-30T02:18:36;5.50;99.90
67163;DHT22;54092;53.088;8.850;2024-01-30T02:21:07;5.40;99.90
67163;DHT22;54092;53.088;8.850;2024-01-30T02:23:33;5.40;99.90
67163;DHT22;54092;53.088;8.850;2024-01-30T02:25:59;5.40;99.90
67163;DHT22;54092;53.088;8.850;2024-01-30T02:28:25;5.30;99.90
67163;DHT22;54092;53.088;8.850;2024-01-30T02:30:51;5.30;99.90
67163;DHT22;54092;53.088;8.850;2024-01-30T02:33:17;5.30;99.90
67163;DHT22;54092;53.088;8.850;2024-01-30T02:35:42;5.20;99.90
67163;DHT22;54092;53.088;8.850;2024-01-30T02:38:07;5.20;99.90
67163;DHT22;54092;53.088;8.850;2024-01-30T02:40:33;5.20;99.90
67163;DHT22;54092;53.088;8.850;2024-01-30T02:42:59;5.20;99.90
67163;DHT22;54092;53.088;8.850;2024-01-30T02:45:25;5.20;99.90
67163;DHT22;54092;53.088;8.850;2024-01-30T02:47:51;5.20;99.90
67163;DHT22;54092;53.088;8.850;2024-01-30T02:50:16;5.20;99.90
67163;DHT22;54092;53.088;8.850;2024-01-30T02:52:42;5.20;99.90
67163;DHT22;54092;53.088;8.850;2024-01-30T02:55:11;5.10;99.90
67163;DHT22;54092;53.088;8.850;2024-01-30T02:57:37;5.20;99.90
67163;DHT22;54092;53.088;8.850;2024-01-30T03:00:03;5.10;99.90
67163;DHT22;54092;53.088;8.850;2024-01-30T03:02:31;5.10;99.90
67163;DHT22;54092;53.088;8.850;2024-01-30T03:04:56;5.10;99.90
67163;DHT22;54092;53.088;8.850;2024-01-30T03:07:21;5.00;99.90
67163;DHT22;54092;53.088;8.850;2024-01-30T03:09:47;5.00;99.90
67163;DHT22;54092;53.088;8.850;2024-01-30T03:12:13;5.00;99.90
67163;DHT22;54092;53.088;8.850;2024-01-30T03:14:39;5.00;99.90
67163;DHT22;54092;53.088;8.850;2024-01-30T03:17:04;4.90;99.90
67163;DHT22;54092;53.088;8.850;2024-01-30T03:19:30;5.00;99.90
67163;DHT22;54092;53.088;8.850;2024-01-30T03:21:55;4.90;99.90
67163;DHT22;54092;53.088;8.850;2024-01-30T03:24:20;4.90;99.90
67163;DHT22;54092;53.088;8.850;2024-01-30T03:26:46;4.90;99.90
67163;DHT22;54092;53.088;8.850;2024-01-30T03:29:11;4.90;99.90
67163;DHT22;54092;53.088;8.850;2024-01-30T03:31:37;4.90;99.90
67163;DHT22;54092;53.088;8.850;2024-01-30T03:34:02;4.90;99.90
67163;DHT22;54092;53.088;8.850;2024-01-30T03:36:28;4.80;99.90
67163;DHT22;54092;53.088;8.850;2024-01-30T03:38:54;4.90;99.90
67163;DHT22;54092;53.088;8.850;2024-01-30T03:41:19;4.90;99.90
67163;DHT22;54092;53.088;8.850;2024-01-30T03:43:46;4.90;99.90
67163;DHT22;54092;53.088;8.850;2024-01-30T03:46:12;4.90;99.90
67163;DHT22;54092;53.088;8.850;2024-01-30T03:48:37;4.90;99.90
67163;DHT22;54092;53.088;8.850;2024-01-30T03:51:03;4.90;99.90
67163;DHT22;54092;53.088;8.850;2024-01-30T03:53:29;4.90;99.90
67163;DHT22;54092;53.088;8.850;2024-01-30T03:55:55;4.90;99.90
67163;DHT22;54092;53.088;8.850;2024-01-30T03:58:20;4.90;99.90
67163;DHT22;54092;53.088;8.850;2024-01-30T04:00:46;4.90;99.90
67163;DHT22;54092;53.088;8.850;2024-01-30T04:03:11;5.00;99.90
67163;DHT22;54092;53.088;8.850;2024-01-30T04:05:37;5.00;99.90
67163;DHT22;54092;53.088;8.850;2024-01-30T04:08:02;5.00;99.90
67163;DHT22;54092;53.088;8.850;2024-01-30T04:10:28;5.10;99.90
67163;DHT22;54092;53.088;8.850;2024-01-30T04:12:53;5.10;99.90
67163;DHT22;54092;53.088;8.850;2024-01-30T04:15:19;5.10;99.90
67163;DHT22;54092;53.088;8.850;2024-01-30T04:17:45;5.10;99.90
67163;DHT22;54092;53.088;8.850;2024-01-30T04:20:14;5.10;99.90
67163;DHT22;54092;53.088;8.850;2024-01-30T04:22:44;5.20;99.90
67163;DHT22;54092;53.088;8.850;2024-01-30T04:25:10;5.20;99.90
67163;DHT22;54092;53.088;8.850;2024-01-30T04:27:36;5.20;99.90
67163;DHT22;54092;53.088;8.850;2024-01-30T04:30:01;5.20;99.90
67163;DHT22;54092;53.088;8.850;2024-01-30T04:32:27;5.20;99.90
67163;DHT22;54092;53.088;8.850;2024-01-30T04:34:52;5.20;99.90
67163;DHT22;54092;53.088;8.850;2024-01-30T04:37:18;5.20;99.90
67163;DHT22;54092;53.088;8.850;2024-01-30T04:39:43;5.30;99.90
67163;DHT22;54092;53.088;8.850;2024-01-30T04:42:09;5.30;99.90
67163;DHT22;54092;53.088;8.850;2024-01-30T04:44:34;5.30;99.90
67163;DHT22;54092;53.088;8.850;2024-01-30T04:47:00;5.40;99.90
67163;DHT22;54092;53.088;8.850;2024-01-30T04:49:27;5.40;99.90
67163;DHT22;54092;53.088;8.850;2024-01-30T04:51:52;5.40;99.90
67163;DHT22;54092;53.088;8.850;2024-01-30T04:54:18;5.50;99.90
67163;DHT22;54092;53.088;8.850;2024-01-30T04:56:43;5.50;99.90
67163;DHT22;54092;53.088;8.850;2024-01-30T04:59:09;5.50;99.90
67163;DHT22;54092;53.088;8.850;2024-01-30T05:01:34;5.50;99.90
67163;DHT22;54092;53.088;8.850;2024-01-30T05:04:00;5.50;99.90
67163;DHT22;54092;53.088;8.850;2024-01-30T05:06:27;5.50;99.90
67163;DHT22;54092;53.088;8.850;2024-01-30T05:08:53;5.50;99.90
67163;DHT22;54092;53.088;8.850;2024-01-30T05:11:18;5.40;99.90
67163;DHT22;54092;53.088;8.850;2024-01-30T05:13:44;5.50;99.90
67163;DHT22;54092;53.088;8.850;2024-01-30T05:16:09;5.50;99.90
67163;DHT22;54092;53.088;8.850;2024-01-30T05:18:35;5.50;99.90
67163;DHT22;54092;53.088;8.850;2024-01-30T05:21:01;5.40;99.90
67163;DHT22;54092;53.088;8.850;2024-01-30T05:23:27;5.40;99.90
67163;DHT22;54092;53.088;8.850;2024-01-30T05:25:52;5.50;99.90
67163;DHT22;54092;53.088;8.850;2024-01-30T05:28:18;5.40;99.90
67163;DHT22;54092;53.088;8.850;2024-01-30T05:30:43;5.40;99.90
67163;DHT22;54092;53.088;8.850;2024-01-30T05:33:09;5.50;99.90
67163;DHT22;54092;53.088;8.850;2024-01-30T05:35:35;5.50;99.90
67163;DHT22;54092;53.088;8.850;2024-01-30T05:38:00;5.50;99.90
67163;DHT22;54092;53.088;8.850;2024-01-30T05:40:26;5.50;99.90
67163;DHT22;54092;53.088;8.850;2024-01-30T05:42:51;5.50;99.90
67163;DHT22;54092;53.088;8.850;2024-01-30T05:45:17;5.50;99.90
67163;DHT22;54092;53.088;8.850;2024-01-30T05:47:42;5.50;99.90
67163;DHT22;54092;53.088;8.850;2024-01-30T05:50:08;5.50;99.90
67163;DHT22;54092;53.088;8.850;2024-01-30T05:52:33;5.60;99.90
67163;DHT22;54092;53.088;8.850;2024-01-30T05:54:59;5.50;99.90
67163;DHT22;54092;53.088;8.850;2024-01-30T05:57:24;5.60;99.90
67163;DHT22;54092;53.088;8.850;2024-01-30T05:59:50;5.60;99.90
67163;DHT22;54092;53.088;8.850;2024-01-30T06:02:18;5.60;99.90
67163;DHT22;54092;53.088;8.850;2024-01-30T06:04:43;5.60;99.90
67163;DHT22;54092;53.088;8.850;2024-01-30T06:07:09;5.70;99.90
67163;DHT22;54092;53.088;8.850;2024-01-30T06:09:35;5.70;99.90
67163;DHT22;54092;53.088;8.850;2024-01-30T06:12:00;5.70;99.90
67163;DHT22;54092;53.088;8.850;2024-01-30T06:14:26;5.70;99.90
67163;DHT22;54092;53.088;8.850;2024-01-30T06:16:51;5.70;99.90
67163;DHT22;54092;53.088;8.850;2024-01-30T06:19:17;5.70;99.90
67163;DHT22;54092;53.088;8.850;2024-01-30T06:21:42;5.70;99.90
67163;DHT22;54092;53.088;8.850;2024-01-30T06:24:08;5.70;99.90
67163;DHT22;54092;53.088;8.850;2024-01-30T06:26:34;5.80;99.90
67163;DHT22;54092;53.088;8.850;2024-01-30T06:28:59;5.70;99.90
67163;DHT22;54092;53.088;8.850;2024-01-30T06:31:25;5.70;99.90
67163;DHT22;54092;53.088;8.850;2024-01-30T06:33:50;5.80;99.90
67163;DHT22;54092;53.088;8.850;2024-01-30T06:36:16;5.80;99.90
67163;DHT22;54092;53.088;8.850;2024-01-30T06:38:41;5.80;99.90
67163;DHT22;54092;53.088;8.850;2024-01-30T06:41:07;5.90;99.90
67163;DHT22;54092;53.088;8.850;2024-01-30T06:43:32;5.80;99.90
67163;DHT22;54092;53.088;8.850;2024-01-30T06:45:58;5.90;99.90
67163;DHT22;54092;53.088;8.850;2024-01-30T06:48:24;5.80;99.90
67163;DHT22;54092;53.088;8.850;2024-01-30T06:50:53;5.80;99.90
67163;DHT22;54092;53.088;8.850;2024-01-30T06:53:19;5.80;99.90
67163;DHT22;54092;53.088;8.850;2024-01-30T06:55:44;5.80;99.90
67163;DHT22;54092;53.088;8.850;2024-01-30T06:58:10;5.90;99.90
67163;DHT22;54092;53.088;8.850;2024-01-30T07:00:35;5.90;99.90
67163;DHT22;54092;53.088;8.850;2024-01-30T07:03:01;5.90;99.90
67163;DHT22;54092;53.088;8.850;2024-01-30T07:05:27;5.90;99.90
67163;DHT22;54092;53.088;8.850;2024-01-30T07:07:52;5.90;99.90
67163;DHT22;54092;53.088;8.850;2024-01-30T07:10:18;5.90;99.90
67163;DHT22;54092;53.088;8.850;2024-01-30T07:12:43;5.90;99.90
67163;DHT22;54092;53.088;8.850;2024-01-30T07:15:09;6.00;99.90
67163;DHT22;54092;53.088;8.850;2024-01-30T07:17:35;6.00;99.90
67163;DHT22;54092;53.088;8.850;2024-01-30T07:20:01;6.00;99.90
67163;DHT22;54092;53.088;8.850;2024-01-30T07:22:29;6.00;99.90
67163;DHT22;54092;53.088;8.850;2024-01-30T07:24:55;6.20;99.90
67163;DHT22;54092;53.088;8.850;2024-01-30T07:27:20;6.30;99.90
67163;DHT22;54092;53.088;8.850;2024-01-30T07:29:47;6.30;99.90
67163;DHT22;54092;53.088;8.850;2024-01-30T07:32:12;6.20;99.90
67163;DHT22;54092;53.088;8.850;2024-01-30T07:34:38;6.20;99.90
67163;DHT22;54092;53.088;8.850;2024-01-30T07:37:03;6.10;99.90
67163;DHT22;54092;53.088;8.850;2024-01-30T07:39:29;6.10;99.90
67163;DHT22;54092;53.088;8.850;2024-01-30T07:41:54;6.10;99.90
67163;DHT22;54092;53.088;8.850;2024-01-30T07:44:20;6.10;99.90
67163;DHT22;54092;53.088;8.850;2024-01-30T07:46:46;6.00;99.90
67163;DHT22;54092;53.088;8.850;2024-01-30T07:49:11;6.00;99.90
67163;DHT22;54092;53.088;8.850;2024-01-30T07:51:39;6.10;99.90
67163;DHT22;54092;53.088;8.850;2024-01-30T07:54:05;6.10;99.90
67163;DHT22;54092;53.088;8.850;2024-01-30T07:56:30;6.10;99.90
67163;DHT22;54092;53.088;8.850;2024-01-30T07:58:56;6.10;99.90
67163;DHT22;54092;53.088;8.850;2024-01-30T08:01:21;6.20;99.90
67163;DHT22;54092;53.088;8.850;2024-01-30T08:03:47;6.20;99.90
67163;DHT22;54092;53.088;8.850;2024-01-30T08:06:12;6.30;99.90
67163;DHT22;54092;53.088;8.850;2024-01-30T08:08:37;6.30;99.90
67163;DHT22;54092;53.088;8.850;2024-01-30T08:11:03;6.40;99.90
67163;DHT22;54092;53.088;8.850;2024-01-30T08:13:29;6.40;99.90
67163;DHT22;54092;53.088;8.850;2024-01-30T08:15:54;6.40;99.90
67163;DHT22;54092;53.088;8.850;2024-01-30T08:18:20;6.50;99.90
67163;DHT22;54092;53.088;8.850;2024-01-30T08:20:45;6.50;99.90
67163;DHT22;54092;53.088;8.850;2024-01-30T08:23:11;6.60;99.90
67163;DHT22;54092;53.088;8.850;2024-01-30T08:25:36;6.60;99.90
67163;DHT22;54092;53.088;8.850;2024-01-30T08:28:02;6.60;99.90
67163;DHT22;54092;53.088;8.850;2024-01-30T08:30:28;6.70;99.90
67163;DHT22;54092;53.088;8.850;2024-01-30T08:32:53;6.70;99.90
67163;DHT22;54092;53.088;8.850;2024-01-30T08:35:19;6.80;99.90
67163;DHT22;54092;53.088;8.850;2024-01-30T08:37:44;6.80;99.90
67163;DHT22;54092;53.088;8.850;2024-01-30T08:40:10;6.80;99.90
67163;DHT22;54092;53.088;8.850;2024-01-30T08:42:35;6.90;99.90
67163;DHT22;54092;53.088;8.850;2024-01-30T08:45:01;6.90;99.90
67163;DHT22;54092;53.088;8.850;2024-01-30T08:47:26;7.00;99.90
67163;DHT22;54092;53.088;8.850;2024-01-30T08:49:52;7.10;99.90
67163;DHT22;54092;53.088;8.850;2024-01-30T08:52:17;7.20;99.90
67163;DHT22;54092;53.088;8.850;2024-01-30T08:54:43;7.30;99.90
67163;DHT22;54092;53.088;8.850;2024-01-30T08:57:09;7.30;99.90
67163;DHT22;54092;53.088;8.850;2024-01-30T08:59:34;7.40;99.90
67163;DHT22;54092;53.088;8.850;2024-01-30T09:01:59;7.40;99.90
67163;DHT22;54092;53.088;8.850;2024-01-30T09:04:25;7.50;99.90
67163;DHT22;54092;53.088;8.850;2024-01-30T09:06:51;7.60;99.90
67163;DHT22;54092;53.088;8.850;2024-01-30T09:09:16;7.60;99.90
67163;DHT22;54092;53.088;8.850;2024-01-30T09:11:43;7.60;99.90
67163;DHT22;54092;53.088;8.850;2024-01-30T09:14:08;7.60;99.90
67163;DHT22;54092;53.088;8.850;2024-01-30T09:16:34;7.70;99.90
67163;DHT22;54092;53.088;8.850;2024-01-30T09:18:59;7.60;99.90
67163;DHT22;54092;53.088;8.850;2024-01-30T09:21:25;7.70;99.90
67163;DHT22;54092;53.088;8.850;2024-01-30T09:23:51;7.70;99.90
67163;DHT22;54092;53.088;8.850;2024-01-30T09:26:17;7.80;99.90
67163;DHT22;54092;53.088;8.850;2024-01-30T09:28:42;7.90;99.90
67163;DHT22;54092;53.088;8.850;2024-01-30T09:31:11;7.90;99.90
67163;DHT22;54092;53.088;8.850;2024-01-30T09:33:38;7.90;99.90
67163;DHT22;54092;53.088;8.850;2024-01-30T09:36:04;8.00;99.90
67163;DHT22;54092;53.088;8.850;2024-01-30T09:38:30;8.00;99.90
67163;DHT22;54092;53.088;8.850;2024-01-30T09:40:55;8.10;99.90
67163;DHT22;54092;53.088;8.850;2024-01-30T09:43:23;8.20;99.90
67163;DHT22;54092;53.088;8.850;2024-01-30T09:45:50;8.20;99.90
67163;DHT22;54092;53.088;8.850;2024-01-30T09:48:16;8.20;99.90
67163;DHT22;54092;53.088;8.850;2024-01-30T09:50:42;8.30;99.90
67163;DHT22;54092;53.088;8.850;2024-01-30T09:53:08;8.30;99.90
67163;DHT22;54092;53.088;8.850;2024-01-30T09:55:36;8.40;99.90
67163;DHT22;54092;53.088;8.850;2024-01-30T09:58:01;8.40;99.90
67163;DHT22;54092;53.088;8.850;2024-01-30T10:00:27;8.40;99.90
67163;DHT22;54092;53.088;8.850;2024-01-30T10:02:53;8.60;99.90
67163;DHT22;54092;53.088;8.850;2024-01-30T10:05:19;8.60;99.90
67163;DHT22;54092;53.088;8.850;2024-01-30T10:07:55;8.70;99.90
67163;DHT22;54092;53.088;8.850;2024-01-30T10:10:23;8.70;99.90
67163;DHT22;54092;53.088;8.850;2024-01-30T10:12:49;8.70;99.90
67163;DHT22;54092;53.088;8.850;2024-01-30T10:15:15;8.80;99.90
67163;DHT22;54092;53.088;8.850;2024-01-30T10:17:40;8.90;99.90
67163;DHT22;54092;53.088;8.850;2024-01-30T10:20:06;8.90;99.90
67163;DHT22;54092;53.088;8.850;2024-01-30T10:22:33;9.00;99.90
67163;DHT22;54092;53.088;8.850;2024-01-30T10:25:00;9.10;99.90
67163;DHT22;54092;53.088;8.850;2024-01-30T10:27:29;9.10;99.90
67163;DHT22;54092;53.088;8.850;2024-01-30T10:29:55;9.20;99.90
67163;DHT22;54092;53.088;8.850;2024-01-30T10:32:21;9.20;99.90
67163;DHT22;54092;53.088;8.850;2024-01-30T10:34:46;9.40;99.90
67163;DHT22;54092;53.088;8.850;2024-01-30T10:37:12;9.40;99.90
67163;DHT22;54092;53.088;8.850;2024-01-30T10:39:41;9.50;99.90
67163;DHT22;54092;53.088;8.850;2024-01-30T10:42:11;9.50;99.90
67163;DHT22;54092;53.088;8.850;2024-01-30T10:44:48;9.60;99.90
67163;DHT22;54092;53.088;8.850;2024-01-30T10:47:26;9.70;99.90
67163;DHT22;54092;53.088;8.850;2024-01-30T10:49:52;9.80;99.90
67163;DHT22;54092;53.088;8.850;2024-01-30T10:52:20;9.90;99.90
67163;DHT22;54092;53.088;8.850;2024-01-30T10:54:46;10.00;99.90
67163;DHT22;54092;53.088;8.850;2024-01-30T10:57:13;10.10;99.90
67163;DHT22;54092;53.088;8.850;2024-01-30T10:59:41;10.30;99.90
67163;DHT22;54092;53.088;8.850;2024-01-30T11:02:07;10.60;99.90
67163;DHT22;54092;53.088;8.850;2024-01-30T11:04:42;11.00;99.90
67163;DHT22;54092;53.088;8.850;2024-01-30T11:07:15;11.20;99.90
67163;DHT22;54092;53.088;8.850;2024-01-30T11:09:48;11.20;99.90
67163;DHT22;54092;53.088;8.850;2024-01-30T11:12:14;10.20;99.90
67163;DHT22;54092;53.088;8.850;2024-01-30T11:14:40;11.40;99.90
67163;DHT22;54092;53.088;8.850;2024-01-30T11:17:05;11.40;99.90
67163;DHT22;54092;53.088;8.850;2024-01-30T11:19:32;11.30;99.90
67163;DHT22;54092;53.088;8.850;2024-01-30T11:21:57;11.30;99.90
67163;DHT22;54092;53.088;8.850;2024-01-30T11:24:24;11.20;99.90
67163;DHT22;54092;53.088;8.850;2024-01-30T11:26:55;11.10;99.90
67163;DHT22;54092;53.088;8.850;2024-01-30T11:29:25;11.10;99.90
67163;DHT22;54092;53.088;8.850;2024-01-30T11:31:54;11.20;99.90
67163;DHT22;54092;53.088;8.850;2024-01-30T11:34:21;11.20;99.90
67163;DHT22;54092;53.088;8.850;2024-01-30T11:37:03;11.20;99.90
67163;DHT22;54092;53.088;8.850;2024-01-30T11:39:32;11.20;99.90
67163;DHT22;54092;53.088;8.850;2024-01-30T11:41:59;11.10;99.90
67163;DHT22;54092;53.088;8.850;2024-01-30T11:44:24;11.20;99.90
67163;DHT22;54092;53.088;8.850;2024-01-30T11:46:51;11.20;99.90
67163;DHT22;54092;53.088;8.850;2024-01-30T11:49:17;11.20;99.90
67163;DHT22;54092;53.088;8.850;2024-01-30T11:51:45;11.20;99.90
67163;DHT22;54092;53.088;8.850;2024-01-30T11:54:11;11.20;99.90
67163;DHT22;54092;53.088;8.850;2024-01-30T11:56:37;11.20;99.90
67163;DHT22;54092;53.088;8.850;2024-01-30T11:59:04;11.10;99.90
67163;DHT22;54092;53.088;8.850;2024-01-30T12:01:31;11.10;99.90
67163;DHT22;54092;53.088;8.850;2024-01-30T12:03:59;11.10;99.90
67163;DHT22;54092;53.088;8.850;2024-01-30T12:06:24;11.00;99.90
67163;DHT22;54092;53.088;8.850;2024-01-30T12:09:00;11.00;99.90
67163;DHT22;54092;53.088;8.850;2024-01-30T12:11:26;11.00;99.90
67163;DHT22;54092;53.088;8.850;2024-01-30T12:13:53;11.00;99.90
67163;DHT22;54092;53.088;8.850;2024-01-30T12:16:19;11.00;99.90
67163;DHT22;54092;53.088;8.850;2024-01-30T12:18:45;11.00;99.90
67163;DHT22;54092;53.088;8.850;2024-01-30T12:21:11;11.00;99.90
67163;DHT22;54092;53.088;8.850;2024-01-30T12:23:36;11.10;99.90
67163;DHT22;54092;53.088;8.850;2024-01-30T12:26:03;11.10;99.90
67163;DHT22;54092;53.088;8.850;2024-01-30T12:28:29;11.20;99.90
67163;DHT22;54092;53.088;8.850;2024-01-30T12:31:04;11.20;99.90
67163;DHT22;54092;53.088;8.850;2024-01-30T12:33:30;11.20;99.90
67163;DHT22;54092;53.088;8.850;2024-01-30T12:35:56;11.20;99.90
67163;DHT22;54092;53.088;8.850;2024-01-30T12:38:23;11.30;99.90
67163;DHT22;54092;53.088;8.850;2024-01-30T12:40:49;11.30;99.90
67163;DHT22;54092;53.088;8.850;2024-01-30T12:43:15;11.20;99.90
67163;DHT22;54092;53.088;8.850;2024-01-30T12:45:41;11.30;99.90
67163;DHT22;54092;53.088;8.850;2024-01-30T12:48:08;11.20;99.90
67163;DHT22;54092;53.088;8.850;2024-01-30T12:50:34;11.30;99.90
67163;DHT22;54092;53.088;8.850;2024-01-30T12:52:59;11.30;99.90
67163;DHT22;54092;53.088;8.850;2024-01-30T12:55:25;11.30;99.90
67163;DHT22;54092;53.088;8.850;2024-01-30T12:57:54;11.30;99.90
67163;DHT22;54092;53.088;8.850;2024-01-30T13:00:20;11.30;99.90
67163;DHT22;54092;53.088;8.850;2024-01-30T13:02:45;11.30;99.90
67163;DHT22;54092;53.088;8.850;2024-01-30T13:05:12;11.30;99.90
67163;DHT22;54092;53.088;8.850;2024-01-30T13:07:38;11.30;99.90
67163;DHT22;54092;53.088;8.850;2024-01-30T13:10:03;11.40;99.90
67163;DHT22;54092;53.088;8.850;2024-01-30T13:12:30;11.40;99.90
67163;DHT22;54092;53.088;8.850;2024-01-30T13:14:57;11.40;99.90
67163;DHT22;54092;53.088;8.850;2024-01-30T13:17:23;11.40;99.90
67163;DHT22;54092;53.088;8.850;2024-01-30T13:19:48;11.40;99.90
67163;DHT22;54092;53.088;8.850;2024-01-30T13:22:15;11.40;99.90
67163;DHT22;54092;53.088;8.850;2024-01-30T13:24:40;11.40;99.90
67163;DHT22;54092;53.088;8.850;2024-01-30T13:27:07;11.30;99.90
67163;DHT22;54092;53.088;8.850;2024-01-30T13:29:32;11.30;99.90
67163;DHT22;54092;53.088;8.850;2024-01-30T13:31:58;11.40;99.90
67163;DHT22;54092;53.088;8.850;2024-01-30T13:34:23;11.40;99.90
67163;DHT22;54092;53.088;8.850;2024-01-30T13:36:50;11.40;99.90
67163;DHT22;54092;53.088;8.850;2024-01-30T13:39:15;11.40;99.90
67163;DHT22;54092;53.088;8.850;2024-01-30T13:41:43;11.40;99.90
67163;DHT22;54092;53.088;8.850;2024-01-30T13:44:09;11.30;99.90
67163;DHT22;54092;53.088;8.850;2024-01-30T13:46:35;11.40;99.90
67163;DHT22;54092;53.088;8.850;2024-01-30T13:49:01;11.40;99.90
67163;DHT22;54092;53.088;8.850;2024-01-30T13:51:27;11.40;99.90
67163;DHT22;54092;53.088;8.850;2024-01-30T13:53:53;11.40;99.90
67163;DHT22;54092;53.088;8.850;2024-01-30T13:56:20;11.50;99.90
67163;DHT22;54092;53.088;8.850;2024-01-30T13:58:48;11.40;99.90
67163;DHT22;54092;53.088;8.850;2024-01-30T14:01:14;11.50;99.90
67163;DHT22;54092;53.088;8.850;2024-01-30T14:03:39;11.50;99.90
67163;DHT22;54092;53.088;8.850;2024-01-30T14:06:05;11.50;99.90
67163;DHT22;54092;53.088;8.850;2024-01-30T14:08:31;11.50;99.90
67163;DHT22;54092;53.088;8.850;2024-01-30T14:10:58;11.60;99.90
67163;DHT22;54092;53.088;8.850;2024-01-30T14:13:23;11.60;99.90
67163;DHT22;54092;53.088;8.850;2024-01-30T14:15:53;11.60;99.90
67163;DHT22;54092;53.088;8.850;2024-01-30T14:18:19;11.60;99.90
67163;DHT22;54092;53.088;8.850;2024-01-30T14:20:44;11.60;99.90
67163;DHT22;54092;53.088;8.850;2024-01-30T14:23:10;11.60;99.90
67163;DHT22;54092;53.088;8.850;2024-01-30T14:25:35;11.60;99.90
67163;DHT22;54092;53.088;8.850;2024-01-30T14:28:01;11.60;99.90
67163;DHT22;54092;53.088;8.850;2024-01-30T14:30:26;11.60;99.90
67163;DHT22;54092;53.088;8.850;2024-01-30T14:32:52;11.60;99.90
67163;DHT22;54092;53.088;8.850;2024-01-30T14:35:17;11.70;99.90
67163;DHT22;54092;53.088;8.850;2024-01-30T14:37:44;11.70;99.90
67163;DHT22;54092;53.088;8.850;2024-01-30T14:40:10;11.90;99.90
67163;DHT22;54092;53.088;8.850;2024-01-30T14:42:36;12.00;99.90
67163;DHT22;54092;53.088;8.850;2024-01-30T14:45:03;11.90;99.90
67163;DHT22;54092;53.088;8.850;2024-01-30T14:47:28;11.90;99.90
67163;DHT22;54092;53.088;8.850;2024-01-30T14:49:54;11.90;99.90
67163;DHT22;54092;53.088;8.850;2024-01-30T14:52:20;12.00;99.90
67163;DHT22;54092;53.088;8.850;2024-01-30T14:54:45;12.20;99.90
67163;DHT22;54092;53.088;8.850;2024-01-30T14:57:11;12.00;99.90
67163;DHT22;54092;53.088;8.850;2024-01-30T14:59:36;11.90;99.90
67163;DHT22;54092;53.088;8.850;2024-01-30T15:02:02;11.80;99.90
67163;DHT22;54092;53.088;8.850;2024-01-30T15:04:28;11.70;99.90
67163;DHT22;54092;53.088;8.850;2024-01-30T15:06:54;11.60;99.90
67163;DHT22;54092;53.088;8.850;2024-01-30T15:09:19;11.70;99.90
67163;DHT22;54092;53.088;8.850;2024-01-30T15:11:47;11.60;99.90
67163;DHT22;54092;53.088;8.850;2024-01-30T15:14:13;11.60;99.90
67163;DHT22;54092;53.088;8.850;2024-01-30T15:16:39;11.60;99.90
67163;DHT22;54092;53.088;8.850;2024-01-30T15:19:04;11.60;99.90
67163;DHT22;54092;53.088;8.850;2024-01-30T15:21:31;11.60;99.90
67163;DHT22;54092;53.088;8.850;2024-01-30T15:23:56;11.60;99.90
67163;DHT22;54092;53.088;8.850;2024-01-30T15:26:22;11.60;99.90
67163;DHT22;54092;53.088;8.850;2024-01-30T15:28:47;11.60;99.90
67163;DHT22;54092;53.088;8.850;2024-01-30T15:31:13;11.60;99.90
67163;DHT22;54092;53.088;8.850;2024-01-30T15:33:39;11.50;99.90
67163;DHT22;54092;53.088;8.850;2024-01-30T15:36:04;11.50;99.90